Time;durP1;ratioP1;P1;durP2;ratioP2;P2;SDS_P1;SDS_P2;PMS_P1;PMS_P2;Temp;Humidity;BMP_temperature;BMP_pressure;BME280_temperature;BME280_humidity;BME280_pressure;Samples;Min_cycle;Max_cycle;Signal;HPM_P1;HPM_P2
2023/06/20 00:00:46;;;;;;;17.55;11.55;;;;;;;;;;4954338;28;20037;-76
2023/06/20 00:03:11;;;;;;;18.48;11.90;;;;;;;;;;4954021;29;20040;-76
2023/06/20 00:05:36;;;;;;;18.13;12.43;;;;;;;;;;4948869;29;20493;-76
2023/06/20 00:08:02;;;;;;;19.50;12.40;;;;;;;;;;4946933;29;20019;-76
2023/06/20 00:10:27;;;;;;;19.27;11.90;;;;;;;;;;4950559;28;20033;-76
2023/06/20 00:12:53;;;;;;;19.08;12.13;;;;;;;;;;4956826;28;20026;-74
2023/06/20 00:15:25;;;;;;;18.77;12.10;;;;;;;;;;4953504;29;20058;-77
2023/06/20 00:17:50;;;;;;;19.50;11.70;;;;;;;;;;4955372;29;20030;-77
2023/06/20 00:20:15;;;;;;;20.65;13.00;;;;;;;;;;4954757;29;20035;-77
2023/06/20 00:22:41;;;;;;;16.52;11.98;;;;;;;;;;4954546;29;20034;-77
2023/06/20 00:25:06;;;;;;;17.33;11.85;;;;;;;;;;4954228;29;20030;-77
2023/06/20 00:27:31;;;;;;;16.75;12.50;;;;;;;;;;4955810;28;20077;-77
2023/06/20 00:29:57;;;;;;;15.90;11.45;;;;;;;;;;4954550;29;20141;-76
2023/06/20 00:32:22;;;;;;;18.85;12.77;;;;;;;;;;4956490;29;20492;-77
2023/06/20 00:34:47;;;;;;;22.13;12.77;;;;;;;;;;4953400;29;20035;-75
2023/06/20 00:37:13;;;;;;;21.95;13.18;;;;;;;;;;4953817;28;20035;-75
2023/06/20 00:39:38;;;;;;;19.27;11.90;;;;;;;;;;4955419;29;20054;-75
2023/06/20 00:42:04;;;;;;;20.73;13.15;;;;;;;;;;4955963;29;20038;-75
2023/06/20 00:44:29;;;;;;;24.55;13.52;;;;;;;;;;4954788;29;20023;-74
2023/06/20 00:46:55;;;;;;;21.45;13.55;;;;;;;;;;4953969;29;20082;-74
2023/06/20 00:49:20;;;;;;;19.90;13.73;;;;;;;;;;4954765;29;20031;-75
2023/06/20 00:51:45;;;;;;;21.92;13.15;;;;;;;;;;4953952;29;20023;-75
2023/06/20 00:54:10;;;;;;;18.90;13.38;;;;;;;;;;4953924;29;20082;-74
2023/06/20 00:56:36;;;;;;;21.42;14.30;;;;;;;;;;4955146;29;20410;-74
2023/06/20 00:59:03;;;;;;;21.13;13.13;;;;;;;;;;4952493;28;20538;-74
2023/06/20 01:04:31;;;;;;;20.13;13.45;;;;;;;;;;4999258;23;20064;-64
2023/06/20 01:07:04;;;;;;;19.52;13.55;;;;;;;;;;5009922;28;20465;-66
2023/06/20 01:09:38;;;;;;;20.83;14.07;;;;;;;;;;5009022;28;20033;-66
2023/06/20 01:12:30;;;;;;;23.80;14.10;;;;;;;;;;4997832;28;20089;-66
2023/06/20 01:15:01;;;;;;;21.17;14.23;;;;;;;;;;4982965;28;20041;-66
2023/06/20 01:17:39;;;;;;;24.45;14.73;;;;;;;;;;5013022;28;20507;-67
2023/06/20 01:20:17;;;;;;;23.85;15.00;;;;;;;;;;5009653;28;20025;-67
2023/06/20 01:22:45;;;;;;;25.40;15.63;;;;;;;;;;5010476;28;20034;-67
2023/06/20 01:25:23;;;;;;;21.80;15.05;;;;;;;;;;5002468;28;20041;-67
2023/06/20 01:27:57;;;;;;;23.15;15.88;;;;;;;;;;5008732;28;20045;-67
2023/06/20 01:30:24;;;;;;;22.63;15.07;;;;;;;;;;5008630;28;20044;-66
2023/06/20 01:32:50;;;;;;;25.25;17.13;;;;;;;;;;4994543;28;20018;-66
2023/06/20 01:35:16;;;;;;;28.98;15.85;;;;;;;;;;5002863;28;20371;-66
2023/06/20 01:37:42;;;;;;;25.27;16.20;;;;;;;;;;5010569;28;20034;-66
2023/06/20 01:40:09;;;;;;;27.30;16.55;;;;;;;;;;5006136;28;20432;-66
2023/06/20 01:42:35;;;;;;;25.38;15.98;;;;;;;;;;4994303;28;20018;-66
2023/06/20 01:45:02;;;;;;;23.92;16.13;;;;;;;;;;4998579;28;20400;-66
2023/06/20 01:47:28;;;;;;;24.10;15.65;;;;;;;;;;4994132;28;20072;-66
2023/06/20 01:49:55;;;;;;;21.33;14.50;;;;;;;;;;5005019;28;20100;-66
2023/06/20 01:52:20;;;;;;;24.23;14.30;;;;;;;;;;5009192;28;20046;-66
2023/06/20 01:54:46;;;;;;;20.98;14.93;;;;;;;;;;5006262;28;20492;-67
2023/06/20 01:57:12;;;;;;;21.45;14.10;;;;;;;;;;5012032;28;20013;-67
2023/06/20 01:59:38;;;;;;;24.20;14.93;;;;;;;;;;5013672;28;20095;-67
2023/06/20 02:02:04;;;;;;;21.75;14.65;;;;;;;;;;5003540;28;20021;-64
2023/06/20 02:04:31;;;;;;;21.75;13.60;;;;;;;;;;4998191;28;20080;-65
2023/06/20 02:06:57;;;;;;;26.92;14.80;;;;;;;;;;4996327;28;20045;-64
2023/06/20 02:09:23;;;;;;;24.60;14.75;;;;;;;;;;5002587;28;20030;-65
2023/06/20 02:11:49;;;;;;;24.88;15.40;;;;;;;;;;5001853;28;20025;-65
2023/06/20 02:14:14;;;;;;;22.92;14.77;;;;;;;;;;5010219;28;20022;-65
2023/06/20 02:16:40;;;;;;;25.60;14.90;;;;;;;;;;5008785;28;20022;-64
2023/06/20 02:19:07;;;;;;;24.35;15.00;;;;;;;;;;5010377;28;20022;-64
2023/06/20 02:21:34;;;;;;;23.58;14.13;;;;;;;;;;5009486;28;20119;-64
2023/06/20 02:23:59;;;;;;;22.85;14.15;;;;;;;;;;5008710;28;20022;-64
2023/06/20 02:26:38;;;;;;;24.35;14.70;;;;;;;;;;5007030;28;20030;-64
2023/06/20 02:29:05;;;;;;;22.95;14.65;;;;;;;;;;5004832;28;20503;-64
2023/06/20 02:31:36;;;;;;;19.98;13.27;;;;;;;;;;5000778;28;20105;-64
2023/06/20 02:34:03;;;;;;;21.90;14.18;;;;;;;;;;5006073;28;20045;-65
2023/06/20 02:36:29;;;;;;;22.20;14.75;;;;;;;;;;5001554;28;20046;-65
2023/06/20 02:38:55;;;;;;;22.58;14.77;;;;;;;;;;5007764;28;20025;-64
2023/06/20 02:41:21;;;;;;;25.05;15.05;;;;;;;;;;5010886;28;20476;-69
2023/06/20 02:43:46;;;;;;;24.13;14.70;;;;;;;;;;5006746;28;20076;-70
2023/06/20 02:46:31;;;;;;;20.90;14.35;;;;;;;;;;4999594;28;20069;-69
2023/06/20 02:49:15;;;;;;;23.10;14.68;;;;;;;;;;4998166;28;20093;-64
2023/06/20 02:52:00;;;;;;;20.27;14.13;;;;;;;;;;4996193;28;20027;-64
2023/06/20 02:54:29;;;;;;;20.98;13.98;;;;;;;;;;4994559;28;20026;-64
2023/06/20 02:56:58;;;;;;;20.88;14.60;;;;;;;;;;4993031;28;20129;-65
2023/06/20 02:59:25;;;;;;;21.05;13.68;;;;;;;;;;4997651;28;20030;-65
2023/06/20 03:01:53;;;;;;;19.33;14.05;;;;;;;;;;5003147;28;20026;-64
2023/06/20 03:04:19;;;;;;;20.85;13.93;;;;;;;;;;5005229;28;20426;-64
2023/06/20 03:06:46;;;;;;;22.45;13.57;;;;;;;;;;5010238;28;20129;-64
2023/06/20 03:09:11;;;;;;;19.30;13.10;;;;;;;;;;5004794;28;20538;-65
2023/06/20 03:11:37;;;;;;;22.67;13.75;;;;;;;;;;4992913;28;20022;-65
2023/06/20 03:14:03;;;;;;;21.45;13.57;;;;;;;;;;4999533;28;20084;-65
2023/06/20 03:16:29;;;;;;;19.75;13.10;;;;;;;;;;4993091;28;20072;-65
2023/06/20 03:18:54;;;;;;;18.95;12.70;;;;;;;;;;5000176;28;20018;-65
2023/06/20 03:21:21;;;;;;;20.85;13.30;;;;;;;;;;5006489;28;20488;-65
2023/06/20 03:23:46;;;;;;;21.50;13.60;;;;;;;;;;5004528;28;20029;-65
2023/06/20 03:26:11;;;;;;;19.50;12.38;;;;;;;;;;5003893;28;20014;-65
2023/06/20 03:28:37;;;;;;;26.13;12.93;;;;;;;;;;5008672;28;20030;-65
2023/06/20 03:31:02;;;;;;;21.85;12.88;;;;;;;;;;5005828;28;20023;-65
2023/06/20 03:33:27;;;;;;;21.55;13.25;;;;;;;;;;5006162;28;20053;-65
2023/06/20 03:35:52;;;;;;;20.30;12.20;;;;;;;;;;4999025;28;20084;-64
2023/06/20 03:38:18;;;;;;;18.27;12.07;;;;;;;;;;5000995;28;20029;-65
2023/06/20 03:40:43;;;;;;;18.55;12.57;;;;;;;;;;5001064;28;20021;-66
2023/06/20 03:43:08;;;;;;;17.40;11.80;;;;;;;;;;5002061;28;20033;-66
2023/06/20 03:45:34;;;;;;;20.38;12.40;;;;;;;;;;5006066;28;20097;-66
2023/06/20 03:47:59;;;;;;;18.65;12.18;;;;;;;;;;5003158;28;20014;-65
2023/06/20 03:50:24;;;;;;;16.90;11.60;;;;;;;;;;5001607;28;20034;-66
2023/06/20 03:52:50;;;;;;;19.42;11.88;;;;;;;;;;4992600;28;20026;-65
2023/06/20 03:55:15;;;;;;;19.55;12.45;;;;;;;;;;5001445;28;20033;-65
2023/06/20 03:57:40;;;;;;;20.35;12.65;;;;;;;;;;5006310;28;20084;-66
2023/06/20 04:00:11;;;;;;;21.23;12.57;;;;;;;;;;4999000;28;20133;-65
2023/06/20 04:02:37;;;;;;;20.25;12.85;;;;;;;;;;5009210;28;20025;-65
2023/06/20 04:05:02;;;;;;;19.83;12.40;;;;;;;;;;5005500;28;20046;-65
2023/06/20 04:07:31;;;;;;;18.73;12.27;;;;;;;;;;5010092;28;20423;-65
2023/06/20 04:09:57;;;;;;;16.80;12.43;;;;;;;;;;5011069;28;20030;-65
2023/06/20 04:12:22;;;;;;;16.00;11.82;;;;;;;;;;5011575;28;20091;-65
2023/06/20 04:14:47;;;;;;;18.58;12.43;;;;;;;;;;5013372;28;20021;-65
2023/06/20 04:17:12;;;;;;;20.02;13.40;;;;;;;;;;5007741;28;20069;-65
2023/06/20 04:19:38;;;;;;;18.23;12.15;;;;;;;;;;5000049;28;20026;-65
2023/06/20 04:22:03;;;;;;;18.08;12.55;;;;;;;;;;5012185;28;20017;-66
2023/06/20 04:24:28;;;;;;;20.90;12.77;;;;;;;;;;5002573;28;20080;-65
2023/06/20 04:26:54;;;;;;;18.70;12.77;;;;;;;;;;5013086;28;20379;-65
2023/06/20 04:29:19;;;;;;;21.52;13.75;;;;;;;;;;5003580;28;20069;-65
2023/06/20 04:31:45;;;;;;;18.42;11.98;;;;;;;;;;5006534;28;20030;-65
2023/06/20 04:34:10;;;;;;;20.42;12.50;;;;;;;;;;4999557;28;20014;-65
2023/06/20 04:36:35;;;;;;;18.45;12.25;;;;;;;;;;5009912;28;20033;-65
2023/06/20 04:39:02;;;;;;;18.50;11.80;;;;;;;;;;5007783;28;20049;-65
2023/06/20 04:41:28;;;;;;;18.38;12.30;;;;;;;;;;5011291;28;20029;-65
2023/06/20 04:43:53;;;;;;;21.35;12.98;;;;;;;;;;5005965;28;20040;-65
2023/06/20 04:46:18;;;;;;;19.48;13.38;;;;;;;;;;4997197;28;20025;-65
2023/06/20 04:48:45;;;;;;;18.45;12.40;;;;;;;;;;5002766;28;20775;-66
2023/06/20 04:51:11;;;;;;;19.40;12.32;;;;;;;;;;5002986;28;20117;-65
2023/06/20 04:53:37;;;;;;;18.23;12.90;;;;;;;;;;5004860;28;20112;-66
2023/06/20 04:56:02;;;;;;;20.20;12.80;;;;;;;;;;5006171;28;20522;-66
2023/06/20 04:58:28;;;;;;;20.40;13.00;;;;;;;;;;5003147;28;20080;-66
2023/06/20 05:01:00;;;;;;;16.50;11.32;;;;;;;;;;5005941;28;20403;-65
2023/06/20 05:03:25;;;;;;;16.42;11.60;;;;;;;;;;5003052;28;20030;-65
2023/06/20 05:05:50;;;;;;;21.60;12.52;;;;;;;;;;5005134;28;20018;-65
2023/06/20 05:08:16;;;;;;;19.70;13.05;;;;;;;;;;5000775;28;20017;-66
2023/06/20 05:10:41;;;;;;;17.35;12.02;;;;;;;;;;5004426;28;20033;-65
2023/06/20 05:13:06;;;;;;;18.13;11.57;;;;;;;;;;5000420;28;20022;-66
2023/06/20 05:15:32;;;;;;;19.83;12.73;;;;;;;;;;5005537;28;20041;-65
2023/06/20 05:17:57;;;;;;;19.05;13.18;;;;;;;;;;4998859;28;20022;-66
2023/06/20 05:20:22;;;;;;;19.85;13.05;;;;;;;;;;4998962;28;20029;-65
2023/06/20 05:22:48;;;;;;;20.17;13.18;;;;;;;;;;5013024;28;20503;-65
2023/06/20 05:25:14;;;;;;;20.48;12.80;;;;;;;;;;5009545;28;20029;-65
2023/06/20 05:27:39;;;;;;;20.50;12.57;;;;;;;;;;5007151;28;20026;-65
2023/06/20 05:30:05;;;;;;;25.83;12.85;;;;;;;;;;5005530;28;20101;-65
2023/06/20 05:32:30;;;;;;;18.45;11.38;;;;;;;;;;5011046;28;20104;-65
2023/06/20 05:34:55;;;;;;;20.67;12.48;;;;;;;;;;5001725;28;20026;-66
2023/06/20 05:37:21;;;;;;;18.10;11.63;;;;;;;;;;5005631;28;20045;-65
2023/06/20 05:39:46;;;;;;;16.42;11.80;;;;;;;;;;5000329;28;20033;-65
2023/06/20 05:42:11;;;;;;;15.77;11.57;;;;;;;;;;5007722;28;20026;-66
2023/06/20 05:44:37;;;;;;;17.80;11.90;;;;;;;;;;5009629;28;20032;-66
2023/06/20 05:47:06;;;;;;;17.42;11.75;;;;;;;;;;5006540;28;20096;-66
2023/06/20 05:49:31;;;;;;;18.00;12.07;;;;;;;;;;5004509;28;20022;-65
2023/06/20 05:51:59;;;;;;;17.30;11.60;;;;;;;;;;5001237;28;20068;-66
2023/06/20 05:54:24;;;;;;;15.82;10.95;;;;;;;;;;5003508;28;20029;-66
2023/06/20 05:56:50;;;;;;;18.50;12.07;;;;;;;;;;4984958;28;20018;-65
2023/06/20 05:59:15;;;;;;;16.02;11.90;;;;;;;;;;5005633;28;20025;-66
2023/06/20 06:01:41;;;;;;;17.15;11.15;;;;;;;;;;5011616;28;20444;-65
2023/06/20 06:04:06;;;;;;;22.55;13.07;;;;;;;;;;5012766;28;20046;-66
2023/06/20 06:06:31;;;;;;;18.00;12.15;;;;;;;;;;5009557;28;20102;-65
2023/06/20 06:08:57;;;;;;;20.98;13.60;;;;;;;;;;5007738;28;20073;-66
2023/06/20 06:11:22;;;;;;;18.65;13.00;;;;;;;;;;5004374;28;20471;-65
2023/06/20 06:13:47;;;;;;;22.02;13.23;;;;;;;;;;5011002;28;20104;-66
2023/06/20 06:16:13;;;;;;;18.23;12.27;;;;;;;;;;5013035;28;20029;-65
2023/06/20 06:18:38;;;;;;;19.20;12.63;;;;;;;;;;5010229;28;20026;-66
2023/06/20 06:21:04;;;;;;;17.10;11.68;;;;;;;;;;5006376;28;20364;-66
2023/06/20 06:23:29;;;;;;;19.60;12.98;;;;;;;;;;5011506;28;20022;-66
2023/06/20 06:25:54;;;;;;;16.98;11.73;;;;;;;;;;5010385;28;20050;-66
2023/06/20 06:28:21;;;;;;;21.15;13.13;;;;;;;;;;5012811;28;20029;-66
2023/06/20 06:30:47;;;;;;;16.73;12.75;;;;;;;;;;5011957;28;20032;-66
2023/06/20 06:33:13;;;;;;;17.60;12.57;;;;;;;;;;5010732;28;20096;-65
2023/06/20 06:35:38;;;;;;;20.67;13.45;;;;;;;;;;5006430;28;20037;-66
2023/06/20 06:38:05;;;;;;;19.95;13.93;;;;;;;;;;5008507;28;20025;-66
2023/06/20 06:40:31;;;;;;;18.25;13.90;;;;;;;;;;5006843;28;20391;-66
2023/06/20 06:42:56;;;;;;;19.60;14.48;;;;;;;;;;5006847;28;20064;-66
2023/06/20 06:45:21;;;;;;;22.05;15.40;;;;;;;;;;5011062;28;20026;-65
2023/06/20 06:47:46;;;;;;;20.73;14.95;;;;;;;;;;5004904;28;20057;-66
2023/06/20 06:50:12;;;;;;;21.67;14.45;;;;;;;;;;5006800;28;20565;-65
2023/06/20 06:52:38;;;;;;;22.98;16.23;;;;;;;;;;5004887;28;20030;-65
2023/06/20 06:55:03;;;;;;;24.60;17.52;;;;;;;;;;4998283;28;20025;-66
2023/06/20 06:57:29;;;;;;;22.75;17.17;;;;;;;;;;5007007;28;20026;-66
2023/06/20 06:59:54;;;;;;;24.15;17.20;;;;;;;;;;5011516;28;20076;-65
2023/06/20 07:02:20;;;;;;;23.10;16.17;;;;;;;;;;5013046;28;20069;-66
2023/06/20 07:04:46;;;;;;;22.40;17.60;;;;;;;;;;5013055;28;20046;-66
2023/06/20 07:07:11;;;;;;;22.60;16.92;;;;;;;;;;4997030;28;20026;-66
2023/06/20 07:09:36;;;;;;;24.13;17.73;;;;;;;;;;4996761;28;20131;-65
2023/06/20 07:12:03;;;;;;;22.92;17.15;;;;;;;;;;5013372;28;20037;-66
2023/06/20 07:14:28;;;;;;;23.90;17.10;;;;;;;;;;5013332;28;20041;-66
2023/06/20 07:16:53;;;;;;;25.88;17.42;;;;;;;;;;5013227;28;20379;-65
2023/06/20 07:19:19;;;;;;;22.42;17.38;;;;;;;;;;5011938;28;20025;-65
2023/06/20 07:21:44;;;;;;;22.88;17.13;;;;;;;;;;5012653;28;20037;-65
2023/06/20 07:24:09;;;;;;;23.20;17.23;;;;;;;;;;5013153;28;20029;-66
2023/06/20 07:26:35;;;;;;;25.10;17.50;;;;;;;;;;5012190;28;20053;-65
2023/06/20 07:29:00;;;;;;;23.63;17.20;;;;;;;;;;5012958;28;20120;-65
2023/06/20 07:31:25;;;;;;;27.13;19.25;;;;;;;;;;5011968;28;20033;-65
2023/06/20 07:33:50;;;;;;;23.38;17.30;;;;;;;;;;5012953;28;20018;-66
2023/06/20 07:36:16;;;;;;;24.23;18.25;;;;;;;;;;5006604;28;20050;-65
2023/06/20 07:38:41;;;;;;;24.58;18.73;;;;;;;;;;4997432;28;20096;-66
2023/06/20 07:41:06;;;;;;;25.08;18.88;;;;;;;;;;5010079;28;20594;-66
2023/06/20 07:43:31;;;;;;;26.60;18.27;;;;;;;;;;5014673;28;20583;-65
2023/06/20 07:45:57;;;;;;;25.42;18.10;;;;;;;;;;5016593;28;20029;-65
2023/06/20 07:48:29;;;;;;;25.40;19.35;;;;;;;;;;5016488;28;20045;-66
2023/06/20 07:50:54;;;;;;;26.52;19.02;;;;;;;;;;5015482;28;20030;-65
2023/06/20 07:53:20;;;;;;;25.00;16.23;;;;;;;;;;5016674;28;20030;-65
2023/06/20 07:55:45;;;;;;;24.33;17.48;;;;;;;;;;5015410;28;20026;-65
2023/06/20 07:58:10;;;;;;;26.00;18.42;;;;;;;;;;5016597;28;20072;-66
2023/06/20 08:00:36;;;;;;;28.05;19.77;;;;;;;;;;5015167;28;20034;-66
2023/06/20 08:03:01;;;;;;;27.80;20.13;;;;;;;;;;5016484;28;20033;-66
2023/06/20 08:05:26;;;;;;;26.58;19.58;;;;;;;;;;5015924;28;20069;-65
2023/06/20 08:07:51;;;;;;;27.73;20.33;;;;;;;;;;5014766;28;20044;-65
2023/06/20 08:10:17;;;;;;;27.67;19.02;;;;;;;;;;5007668;28;20091;-67
2023/06/20 08:12:42;;;;;;;25.17;19.27;;;;;;;;;;5016373;28;20032;-66
2023/06/20 08:15:08;;;;;;;26.88;19.63;;;;;;;;;;5009767;28;20062;-66
2023/06/20 08:17:33;;;;;;;26.92;21.25;;;;;;;;;;4996688;28;20498;-66
2023/06/20 08:20:06;;;;;;;24.60;19.55;;;;;;;;;;4998244;28;20168;-66
2023/06/20 08:22:32;;;;;;;29.00;21.02;;;;;;;;;;5015219;28;20010;-66
2023/06/20 08:24:57;;;;;;;26.25;19.33;;;;;;;;;;5015039;28;20518;-66
2023/06/20 08:27:22;;;;;;;26.77;19.17;;;;;;;;;;5015925;28;20093;-66
2023/06/20 08:29:48;;;;;;;24.27;18.10;;;;;;;;;;5015028;28;20476;-66
2023/06/20 08:32:13;;;;;;;22.15;17.67;;;;;;;;;;5015715;28;20034;-65
2023/06/20 08:34:38;;;;;;;24.63;19.00;;;;;;;;;;5014742;28;20511;-66
2023/06/20 08:37:04;;;;;;;23.55;18.13;;;;;;;;;;5014916;28;20040;-66
2023/06/20 08:39:29;;;;;;;24.40;17.83;;;;;;;;;;5015820;28;20495;-66
2023/06/20 08:41:55;;;;;;;22.38;17.25;;;;;;;;;;5014547;28;20029;-66
2023/06/20 08:44:20;;;;;;;22.33;17.15;;;;;;;;;;5015879;28;20026;-66
2023/06/20 08:46:46;;;;;;;23.20;17.40;;;;;;;;;;5015708;28;20021;-66
2023/06/20 08:49:14;;;;;;;23.25;17.10;;;;;;;;;;5015621;28;20029;-66
2023/06/20 08:51:42;;;;;;;21.38;15.90;;;;;;;;;;5014564;28;20037;-66
2023/06/20 08:54:13;;;;;;;18.67;15.45;;;;;;;;;;5015217;28;20026;-66
2023/06/20 08:56:39;;;;;;;20.13;15.30;;;;;;;;;;5012483;28;20468;-66
2023/06/20 08:59:04;;;;;;;18.88;15.32;;;;;;;;;;5005106;28;20076;-67
2023/06/20 09:01:30;;;;;;;23.10;16.83;;;;;;;;;;5014975;28;20026;-66
2023/06/20 09:03:59;;;;;;;20.08;16.23;;;;;;;;;;5014954;28;20050;-66
2023/06/20 09:06:37;;;;;;;17.52;13.23;;;;;;;;;;5015345;28;20460;-65
2023/06/20 09:09:03;;;;;;;20.63;15.63;;;;;;;;;;5014591;28;20117;-67
2023/06/20 09:11:28;;;;;;;22.65;16.38;;;;;;;;;;5014199;28;20483;-65
2023/06/20 09:13:59;;;;;;;23.02;16.48;;;;;;;;;;5014968;28;20028;-65
2023/06/20 09:16:25;;;;;;;21.75;17.08;;;;;;;;;;5014460;28;20384;-66
2023/06/20 09:18:50;;;;;;;21.67;16.17;;;;;;;;;;5014361;28;20030;-65
2023/06/20 09:21:16;;;;;;;18.83;14.93;;;;;;;;;;5013695;28;20036;-66
2023/06/20 09:23:41;;;;;;;19.40;16.60;;;;;;;;;;5013748;28;20105;-66
2023/06/20 09:26:14;;;;;;;18.92;15.63;;;;;;;;;;5013990;28;20033;-66
2023/06/20 09:28:39;;;;;;;17.42;14.23;;;;;;;;;;4997142;28;20014;-66
2023/06/20 09:31:04;;;;;;;19.10;15.77;;;;;;;;;;5014942;28;20104;-65
2023/06/20 09:33:30;;;;;;;19.60;14.95;;;;;;;;;;5014787;28;20520;-65
2023/06/20 09:36:09;;;;;;;31.23;15.82;;;;;;;;;;5012221;28;20022;-65
2023/06/20 09:38:34;;;;;;;19.02;15.27;;;;;;;;;;5013569;28;20030;-66
2023/06/20 09:41:00;;;;;;;19.88;16.13;;;;;;;;;;4997910;28;20473;-66
2023/06/20 09:43:25;;;;;;;20.27;14.98;;;;;;;;;;5012133;28;20034;-66
2023/06/20 09:45:50;;;;;;;19.83;15.25;;;;;;;;;;5011618;28;20037;-66
2023/06/20 09:48:16;;;;;;;19.02;15.60;;;;;;;;;;5014168;28;20049;-66
2023/06/20 09:50:43;;;;;;;16.88;14.05;;;;;;;;;;5011771;28;20113;-66
2023/06/20 09:53:19;;;;;;;17.30;13.98;;;;;;;;;;5014516;28;20026;-66
2023/06/20 09:55:45;;;;;;;16.83;12.98;;;;;;;;;;5013541;28;20029;-66
2023/06/20 09:58:12;;;;;;;18.48;14.00;;;;;;;;;;5014108;28;20104;-66
2023/06/20 10:00:37;;;;;;;14.75;12.50;;;;;;;;;;5013417;28;20022;-66
2023/06/20 10:03:10;;;;;;;17.55;13.75;;;;;;;;;;5012269;28;20014;-66
2023/06/20 10:05:36;;;;;;;14.90;11.73;;;;;;;;;;5002481;28;20054;-66
2023/06/20 10:08:01;;;;;;;15.00;12.60;;;;;;;;;;4997080;28;20029;-66
2023/06/20 10:10:27;;;;;;;16.23;11.13;;;;;;;;;;5004198;28;20045;-66
2023/06/20 10:12:53;;;;;;;15.10;12.30;;;;;;;;;;5013717;28;20017;-66
2023/06/20 10:15:18;;;;;;;14.77;10.40;;;;;;;;;;4995106;28;20072;-66
2023/06/20 10:17:47;;;;;;;15.30;12.35;;;;;;;;;;5012653;28;20567;-67
2023/06/20 10:20:24;;;;;;;14.73;12.13;;;;;;;;;;5013980;28;20030;-66
2023/06/20 10:22:50;;;;;;;19.02;13.32;;;;;;;;;;5011962;28;20032;-67
2023/06/20 10:25:16;;;;;;;17.50;14.27;;;;;;;;;;5012830;28;20105;-67
2023/06/20 10:27:56;;;;;;;14.70;12.13;;;;;;;;;;5013585;28;20105;-67
2023/06/20 10:30:40;;;;;;;16.73;13.32;;;;;;;;;;5013644;28;20026;-67
2023/06/20 10:33:08;;;;;;;15.68;12.77;;;;;;;;;;5013351;28;20103;-67
2023/06/20 10:35:33;;;;;;;15.13;13.02;;;;;;;;;;5013863;28;20384;-67
2023/06/20 10:38:08;;;;;;;15.30;13.68;;;;;;;;;;5013877;28;20033;-67
2023/06/20 10:40:34;;;;;;;15.38;12.95;;;;;;;;;;5012280;28;20110;-67
2023/06/20 10:43:00;;;;;;;13.63;11.60;;;;;;;;;;5012892;28;20416;-68
2023/06/20 10:45:26;;;;;;;12.68;8.45;;;;;;;;;;5012400;28;20060;-67
2023/06/20 10:47:52;;;;;;;13.00;10.82;;;;;;;;;;5013306;28;20076;-67
2023/06/20 10:50:18;;;;;;;15.35;12.70;;;;;;;;;;5010625;28;20038;-67
2023/06/20 10:52:43;;;;;;;12.60;10.35;;;;;;;;;;5013565;28;20029;-68
2023/06/20 10:55:16;;;;;;;14.25;11.18;;;;;;;;;;5012508;28;20379;-67
2023/06/20 10:57:48;;;;;;;12.80;10.50;;;;;;;;;;5009036;28;20049;-67
2023/06/20 11:00:17;;;;;;;11.93;10.48;;;;;;;;;;4994591;28;20034;-68
2023/06/20 11:02:43;;;;;;;14.13;11.23;;;;;;;;;;5013365;28;20034;-67
2023/06/20 11:05:11;;;;;;;10.05;8.23;;;;;;;;;;5012095;28;20049;-67
2023/06/20 11:07:55;;;;;;;13.15;9.60;;;;;;;;;;5013129;28;20022;-67
2023/06/20 11:10:21;;;;;;;10.75;8.90;;;;;;;;;;5012271;28;20026;-67
2023/06/20 11:12:47;;;;;;;10.75;8.32;;;;;;;;;;5016643;28;20025;-68
2023/06/20 11:15:22;;;;;;;10.02;7.57;;;;;;;;;;5017539;28;20474;-68
2023/06/20 11:17:47;;;;;;;9.90;7.47;;;;;;;;;;5016528;28;20025;-68
2023/06/20 11:20:13;;;;;;;8.85;7.07;;;;;;;;;;5015407;28;20125;-67
2023/06/20 11:22:38;;;;;;;9.55;7.80;;;;;;;;;;5017387;28;20105;-67
2023/06/20 11:25:06;;;;;;;10.15;7.95;;;;;;;;;;5015943;28;20018;-67
2023/06/20 11:27:31;;;;;;;11.85;8.48;;;;;;;;;;5017240;28;20026;-67
2023/06/20 11:29:56;;;;;;;9.65;7.07;;;;;;;;;;5017105;28;20400;-69
2023/06/20 11:32:21;;;;;;;9.38;7.63;;;;;;;;;;5015313;28;20487;-67
2023/06/20 11:34:50;;;;;;;12.05;9.30;;;;;;;;;;5002198;28;20022;-67
2023/06/20 11:37:15;;;;;;;9.77;7.85;;;;;;;;;;5016982;28;20094;-67
2023/06/20 11:39:40;;;;;;;12.50;9.02;;;;;;;;;;5015318;28;20423;-67
2023/06/20 11:42:15;;;;;;;16.08;9.60;;;;;;;;;;5016612;28;20050;-67
2023/06/20 11:44:41;;;;;;;10.60;8.15;;;;;;;;;;5015995;28;20024;-67
2023/06/20 11:47:06;;;;;;;10.60;8.48;;;;;;;;;;5016684;28;20093;-67
2023/06/20 11:49:32;;;;;;;10.68;8.38;;;;;;;;;;5015144;28;20026;-68
2023/06/20 11:51:58;;;;;;;10.88;7.25;;;;;;;;;;5014944;28;20359;-68
2023/06/20 11:54:24;;;;;;;9.52;8.02;;;;;;;;;;5013780;28;20145;-68
2023/06/20 11:56:53;;;;;;;12.70;10.02;;;;;;;;;;5016783;28;20036;-68
2023/06/20 11:59:24;;;;;;;11.73;8.43;;;;;;;;;;5016667;28;20389;-68
2023/06/20 12:01:50;;;;;;;8.73;6.80;;;;;;;;;;5014579;28;20022;-68
2023/06/20 12:04:18;;;;;;;10.88;7.68;;;;;;;;;;5013498;28;20129;-68
2023/06/20 12:06:44;;;;;;;11.65;9.00;;;;;;;;;;5016332;28;20105;-69
2023/06/20 12:09:13;;;;;;;11.75;9.18;;;;;;;;;;5015506;28;20014;-69
2023/06/20 12:11:45;;;;;;;8.70;7.25;;;;;;;;;;5016195;28;20022;-68
2023/06/20 12:14:11;;;;;;;8.85;6.68;;;;;;;;;;5015534;28;20476;-68
2023/06/20 12:16:37;;;;;;;9.23;7.55;;;;;;;;;;5016277;28;20204;-69
2023/06/20 12:19:02;;;;;;;8.60;7.35;;;;;;;;;;5013741;28;20498;-68
2023/06/20 12:21:27;;;;;;;9.98;7.63;;;;;;;;;;5015927;28;20369;-68
2023/06/20 12:23:53;;;;;;;8.60;6.88;;;;;;;;;;5015495;28;20029;-69
2023/06/20 12:26:18;;;;;;;6.75;5.13;;;;;;;;;;5013934;28;20031;-68
2023/06/20 12:28:43;;;;;;;9.75;7.65;;;;;;;;;;5015339;28;20057;-68
2023/06/20 12:31:10;;;;;;;8.77;7.28;;;;;;;;;;5015604;28;20109;-68
2023/06/20 12:33:36;;;;;;;9.70;7.68;;;;;;;;;;5015676;28;20018;-68
2023/06/20 12:36:01;;;;;;;10.38;7.97;;;;;;;;;;5015029;28;20017;-68
2023/06/20 12:38:26;;;;;;;11.20;8.48;;;;;;;;;;5016148;28;20033;-68
2023/06/20 12:40:52;;;;;;;10.32;8.27;;;;;;;;;;5004358;28;20075;-72
2023/06/20 12:43:17;;;;;;;13.48;9.70;;;;;;;;;;5008174;28;20037;-73
2023/06/20 12:45:45;;;;;;;9.93;8.80;;;;;;;;;;5006133;28;20019;-72
2023/06/20 12:48:10;;;;;;;9.88;7.13;;;;;;;;;;4998554;28;20025;-72
2023/06/20 12:50:35;;;;;;;12.27;8.82;;;;;;;;;;5012098;28;20476;-73
2023/06/20 12:53:01;;;;;;;11.68;9.25;;;;;;;;;;5013043;28;20033;-73
2023/06/20 12:55:26;;;;;;;10.75;9.23;;;;;;;;;;5009094;28;20355;-73
2023/06/20 12:57:51;;;;;;;11.43;8.35;;;;;;;;;;5013382;28;20026;-72
2023/06/20 13:00:18;;;;;;;9.63;8.15;;;;;;;;;;5009728;28;20484;-73
2023/06/20 13:02:43;;;;;;;9.60;7.95;;;;;;;;;;5013924;28;20364;-72
2023/06/20 13:05:08;;;;;;;9.68;8.02;;;;;;;;;;5010837;28;20049;-72
2023/06/20 13:07:35;;;;;;;9.45;7.18;;;;;;;;;;5009110;28;20037;-73
2023/06/20 13:10:01;;;;;;;8.13;6.05;;;;;;;;;;5005246;28;20151;-72
2023/06/20 13:12:26;;;;;;;8.48;7.10;;;;;;;;;;5001659;28;20049;-72
2023/06/20 13:14:52;;;;;;;9.07;6.25;;;;;;;;;;5003767;28;20430;-72
2023/06/20 13:17:17;;;;;;;9.38;6.72;;;;;;;;;;5004812;28;20148;-72
2023/06/20 13:19:42;;;;;;;7.82;5.70;;;;;;;;;;5008786;28;20061;-72
2023/06/20 13:22:08;;;;;;;9.00;7.03;;;;;;;;;;5002287;28;20460;-72
2023/06/20 13:24:33;;;;;;;9.40;7.10;;;;;;;;;;5004252;28;20057;-72
2023/06/20 13:26:58;;;;;;;9.07;5.82;;;;;;;;;;5009277;28;20025;-72
2023/06/20 13:29:24;;;;;;;9.70;8.70;;;;;;;;;;5013715;28;20025;-72
2023/06/20 13:31:49;;;;;;;19.73;15.70;;;;;;;;;;5000489;28;20028;-73
2023/06/20 13:34:14;;;;;;;11.68;6.65;;;;;;;;;;5005297;28;20021;-72
2023/06/20 13:36:40;;;;;;;8.20;6.30;;;;;;;;;;5014626;28;20022;-72
2023/06/20 13:39:05;;;;;;;6.93;5.10;;;;;;;;;;5005831;28;20384;-72
2023/06/20 13:41:30;;;;;;;6.85;5.22;;;;;;;;;;5013943;28;20053;-73
2023/06/20 13:43:55;;;;;;;6.90;4.95;;;;;;;;;;5010919;28;20045;-73
2023/06/20 13:46:21;;;;;;;7.70;5.60;;;;;;;;;;5010941;28;20180;-72
2023/06/20 13:48:47;;;;;;;6.70;5.35;;;;;;;;;;5010269;28;20022;-72
2023/06/20 13:51:14;;;;;;;6.45;5.28;;;;;;;;;;5012862;28;20030;-72
2023/06/20 13:53:40;;;;;;;6.38;4.72;;;;;;;;;;5003324;28;20116;-72
2023/06/20 13:56:05;;;;;;;6.70;5.60;;;;;;;;;;5007065;28;20479;-72
2023/06/20 13:58:31;;;;;;;6.97;5.18;;;;;;;;;;5007443;28;20109;-73
2023/06/20 14:00:56;;;;;;;7.22;5.30;;;;;;;;;;5008781;28;20027;-73
2023/06/20 14:03:21;;;;;;;10.25;5.60;;;;;;;;;;5009482;28;20029;-73
2023/06/20 14:05:47;;;;;;;7.18;5.68;;;;;;;;;;5013853;28;20054;-72
2023/06/20 14:08:12;;;;;;;6.35;4.88;;;;;;;;;;5007216;28;20524;-72
2023/06/20 14:10:37;;;;;;;8.50;5.47;;;;;;;;;;5008877;28;20032;-72
2023/06/20 14:13:02;;;;;;;6.35;5.10;;;;;;;;;;5011732;28;20108;-72
2023/06/20 14:15:28;;;;;;;6.75;4.50;;;;;;;;;;5012921;28;20053;-73
2023/06/20 14:17:55;;;;;;;7.05;5.13;;;;;;;;;;5013151;28;20053;-73
2023/06/20 14:20:21;;;;;;;9.82;4.88;;;;;;;;;;5012712;28;20125;-72